Time;durP1;ratioP1;P1;durP2;ratioP2;P2;SDS_P1;SDS_P2;PMS_P1;PMS_P2;Temp;Humidity;BMP_temperature;BMP_pressure;BME280_temperature;BME280_humidity;BME280_pressure;Samples;Min_cycle;Max_cycle;Signal;HPM_P1;HPM_P2
2023/11/29 00:00:20;;;;;;;2.53;1.15;;;2.70;99.90;;;;;;6208937;23;20014;-73
2023/11/29 00:02:45;;;;;;;3.10;1.10;;;2.70;99.90;;;;;;6209260;23;20054;-73
2023/11/29 00:05:12;;;;;;;5.05;2.22;;;2.80;99.90;;;;;;6209216;23;20358;-72
2023/11/29 00:07:40;;;;;;;4.57;1.45;;;2.80;99.90;;;;;;6208879;23;20070;-72
2023/11/29 00:10:07;;;;;;;2.67;0.60;;;2.90;99.90;;;;;;6208616;23;20015;-73
2023/11/29 00:12:32;;;;;;;1.90;0.60;;;2.90;99.90;;;;;;6209357;23;20004;-73
2023/11/29 00:14:58;;;;;;;3.85;0.60;;;3.00;99.90;;;;;;6208159;23;20014;-73
2023/11/29 00:17:23;;;;;;;13.82;1.05;;;3.00;99.90;;;;;;6206992;23;20050;-72
2023/11/29 00:19:49;;;;;;;2.72;0.60;;;3.00;99.90;;;;;;6210754;23;20016;-73
2023/11/29 00:22:15;;;;;;;8.07;1.00;;;3.10;99.90;;;;;;6208910;23;20386;-74
2023/11/29 00:24:46;;;;;;;1.30;0.40;;;3.00;99.90;;;;;;6208750;23;20433;-72
2023/11/29 00:27:14;;;;;;;5.75;1.50;;;3.00;99.90;;;;;;6207331;23;20027;-71
2023/11/29 00:29:39;;;;;;;0.70;0.35;;;3.10;99.90;;;;;;6208092;23;20438;-74
2023/11/29 00:32:05;;;;;;;1.70;0.55;;;3.10;99.90;;;;;;6210125;23;20025;-72
2023/11/29 00:34:30;;;;;;;1.95;0.52;;;3.10;99.90;;;;;;6209065;23;20017;-72
2023/11/29 00:36:58;;;;;;;4.15;1.13;;;3.10;99.90;;;;;;6210459;23;20028;-71
2023/11/29 00:39:23;;;;;;;3.10;0.60;;;3.10;99.90;;;;;;6207136;23;20012;-72
2023/11/29 00:41:49;;;;;;;5.85;0.88;;;3.00;99.90;;;;;;6208307;23;20014;-72
2023/11/29 00:44:14;;;;;;;0.98;0.70;;;3.00;99.90;;;;;;6206443;23;20092;-73
2023/11/29 00:46:40;;;;;;;2.45;0.90;;;3.00;99.90;;;;;;6209407;23;20000;-73
2023/11/29 00:49:07;;;;;;;5.20;1.05;;;3.00;99.90;;;;;;6208358;23;20012;-73
2023/11/29 00:51:32;;;;;;;3.17;1.10;;;2.90;99.90;;;;;;6207058;23;20699;-72
2023/11/29 00:53:58;;;;;;;1.45;0.60;;;2.90;99.90;;;;;;6208269;23;20001;-72
2023/11/29 00:56:24;;;;;;;2.95;0.65;;;2.90;99.90;;;;;;6208735;23;20031;-73
2023/11/29 00:58:49;;;;;;;2.03;0.95;;;2.90;99.90;;;;;;6210224;23;20083;-72
2023/11/29 01:01:16;;;;;;;1.98;0.47;;;2.90;99.90;;;;;;6208853;23;20007;-72
2023/11/29 01:03:41;;;;;;;3.85;0.98;;;2.90;99.90;;;;;;6208597;23;20035;-72
2023/11/29 01:06:07;;;;;;;2.92;0.68;;;2.90;99.90;;;;;;6209916;23;20016;-73
2023/11/29 01:08:33;;;;;;;2.50;0.40;;;3.10;99.90;;;;;;6206670;23;20015;-73
2023/11/29 01:10:58;;;;;;;3.17;0.70;;;3.00;99.90;;;;;;6208130;23;20012;-73
2023/11/29 01:13:24;;;;;;;3.25;0.65;;;3.00;99.90;;;;;;6208976;23;20019;-73
2023/11/29 01:15:49;;;;;;;3.85;1.00;;;3.00;99.90;;;;;;6208124;23;20393;-72
2023/11/29 01:18:15;;;;;;;2.80;1.13;;;3.00;99.90;;;;;;6207091;23;20008;-73
2023/11/29 01:20:42;;;;;;;5.55;0.93;;;3.00;99.90;;;;;;6207847;23;20060;-73
2023/11/29 01:23:08;;;;;;;2.85;0.60;;;3.00;99.90;;;;;;6208468;23;20023;-74
2023/11/29 01:25:34;;;;;;;4.82;1.08;;;3.00;99.90;;;;;;6209253;23;20631;-74
2023/11/29 01:28:01;;;;;;;6.03;0.63;;;3.00;99.90;;;;;;6210650;23;20387;-73
2023/11/29 01:30:27;;;;;;;2.42;0.88;;;3.10;99.90;;;;;;6208741;23;20020;-73
2023/11/29 01:32:52;;;;;;;6.32;0.75;;;3.10;99.90;;;;;;6212021;23;20009;-72
2023/11/29 01:35:18;;;;;;;5.18;0.88;;;3.10;99.90;;;;;;6212010;23;20036;-72
2023/11/29 01:37:44;;;;;;;4.72;1.02;;;3.10;99.90;;;;;;6213254;23;20056;-73
2023/11/29 01:40:10;;;;;;;3.00;0.50;;;3.20;99.90;;;;;;6213940;23;20380;-73
2023/11/29 01:42:36;;;;;;;1.63;0.55;;;3.20;99.90;;;;;;6215019;23;20009;-73
2023/11/29 01:45:03;;;;;;;2.25;0.40;;;3.20;99.90;;;;;;6211099;23;20066;-73
2023/11/29 01:47:33;;;;;;;4.45;0.60;;;3.20;99.90;;;;;;6211435;23;20000;-73
2023/11/29 01:50:02;;;;;;;0.73;0.30;;;3.20;99.90;;;;;;6210990;22;20032;-73
2023/11/29 01:52:29;;;;;;;3.97;0.93;;;3.20;99.90;;;;;;6210562;23;20385;-73
2023/11/29 01:54:55;;;;;;;2.65;0.43;;;3.20;99.90;;;;;;6209528;23;20009;-73
2023/11/29 01:57:20;;;;;;;2.13;0.20;;;3.30;99.90;;;;;;6210125;23;20028;-73
2023/11/29 01:59:47;;;;;;;3.67;0.40;;;3.20;99.90;;;;;;6210089;23;20020;-73
2023/11/29 02:02:12;;;;;;;0.77;0.30;;;3.20;99.90;;;;;;6210787;23;20016;-74
2023/11/29 02:04:38;;;;;;;2.47;0.38;;;3.20;99.90;;;;;;6209613;23;20016;-73
2023/11/29 02:07:04;;;;;;;1.27;0.45;;;3.20;99.90;;;;;;6210321;23;20009;-73
2023/11/29 02:09:30;;;;;;;2.53;0.50;;;3.20;99.90;;;;;;6207474;23;20071;-74
2023/11/29 02:11:56;;;;;;;5.57;0.43;;;3.20;99.90;;;;;;6209078;23;20005;-72
2023/11/29 02:14:21;;;;;;;13.70;1.05;;;3.10;99.90;;;;;;6207276;23;20012;-73
2023/11/29 02:16:47;;;;;;;1.63;0.50;;;3.20;99.90;;;;;;6210877;23;20008;-74
2023/11/29 02:19:12;;;;;;;5.18;0.43;;;3.10;99.90;;;;;;6209112;23;20012;-73
2023/11/29 02:21:38;;;;;;;1.95;0.57;;;3.10;99.90;;;;;;6208568;23;19997;-72
2023/11/29 02:24:07;;;;;;;1.27;0.40;;;3.10;99.90;;;;;;6210291;23;20011;-72
2023/11/29 02:26:33;;;;;;;2.08;0.60;;;3.10;99.90;;;;;;6208903;23;20039;-73
2023/11/29 02:29:00;;;;;;;3.10;0.30;;;3.20;99.90;;;;;;6211822;23;20320;-72
2023/11/29 02:31:25;;;;;;;2.70;0.70;;;3.20;99.90;;;;;;6208348;23;20020;-72
2023/11/29 02:33:51;;;;;;;2.85;0.68;;;3.20;99.90;;;;;;6211320;23;20011;-73
2023/11/29 02:36:16;;;;;;;2.25;0.40;;;3.40;99.90;;;;;;6208314;23;20004;-72
2023/11/29 02:38:42;;;;;;;3.88;0.50;;;3.40;99.90;;;;;;6209553;23;20008;-73
2023/11/29 02:41:08;;;;;;;2.55;0.30;;;3.50;99.90;;;;;;6209212;23;20063;-72
2023/11/29 02:43:33;;;;;;;11.70;0.73;;;3.50;99.90;;;;;;6210867;23;20076;-72
2023/11/29 02:45:59;;;;;;;2.60;0.20;;;3.50;99.90;;;;;;6209703;23;20016;-73
2023/11/29 02:48:25;;;;;;;6.15;0.85;;;3.50;99.90;;;;;;6209861;23;20063;-73
2023/11/29 02:50:50;;;;;;;2.65;0.52;;;3.50;99.90;;;;;;6211276;23;20005;-73
2023/11/29 02:53:16;;;;;;;3.45;1.00;;;3.50;99.90;;;;;;6210354;23;20012;-73
2023/11/29 02:55:41;;;;;;;5.43;0.60;;;3.60;99.90;;;;;;6211788;23;20497;-72
2023/11/29 02:58:07;;;;;;;2.63;0.25;;;3.60;99.90;;;;;;6209260;23;20009;-72
2023/11/29 03:00:32;;;;;;;8.48;0.98;;;3.60;99.90;;;;;;6208391;23;20012;-73
2023/11/29 03:02:58;;;;;;;3.08;0.68;;;3.70;99.90;;;;;;6211732;23;20009;-73
2023/11/29 03:05:24;;;;;;;2.75;0.50;;;3.70;99.90;;;;;;6208573;23;20021;-72
2023/11/29 03:07:49;;;;;;;4.47;0.45;;;3.70;99.90;;;;;;6209494;23;20079;-74
2023/11/29 03:10:15;;;;;;;8.15;0.80;;;3.60;99.90;;;;;;6210121;23;20340;-74
2023/11/29 03:12:40;;;;;;;5.32;0.73;;;3.60;99.90;;;;;;6209917;23;20070;-74
2023/11/29 03:15:06;;;;;;;4.28;0.60;;;3.60;99.90;;;;;;6209567;23;20511;-73
2023/11/29 03:17:32;;;;;;;2.03;0.40;;;3.50;99.90;;;;;;6210236;23;20016;-73
2023/11/29 03:19:57;;;;;;;5.07;0.28;;;3.50;99.90;;;;;;6210999;23;20063;-72
2023/11/29 03:22:23;;;;;;;5.18;0.63;;;3.50;99.90;;;;;;6208359;23;20050;-72
2023/11/29 03:24:48;;;;;;;1.48;0.20;;;3.50;99.90;;;;;;6209656;23;20019;-73
2023/11/29 03:27:18;;;;;;;3.70;0.90;;;3.50;99.90;;;;;;6208289;23;20013;-74
2023/11/29 03:29:43;;;;;;;0.90;0.10;;;3.60;99.90;;;;;;6209193;23;20017;-72
2023/11/29 03:32:09;;;;;;;0.38;0.25;;;3.50;99.90;;;;;;6210329;23;20127;-73
2023/11/29 03:34:34;;;;;;;2.97;0.28;;;3.40;99.90;;;;;;6209070;23;20001;-72
2023/11/29 03:37:00;;;;;;;0.45;0.10;;;3.40;99.90;;;;;;6209157;23;20004;-73
2023/11/29 03:39:25;;;;;;;4.65;0.30;;;3.40;99.90;;;;;;6207943;23;20026;-73
2023/11/29 03:41:51;;;;;;;2.55;0.75;;;3.40;99.90;;;;;;6209604;23;20016;-73
2023/11/29 03:44:16;;;;;;;3.25;0.60;;;3.40;99.90;;;;;;6207411;23;20316;-73
2023/11/29 03:46:42;;;;;;;7.40;0.73;;;3.40;99.90;;;;;;6208709;23;20000;-72
2023/11/29 03:49:08;;;;;;;5.03;0.55;;;3.40;99.90;;;;;;6208977;23;20005;-73
2023/11/29 03:51:33;;;;;;;4.50;0.73;;;3.40;99.90;;;;;;6209562;23;20009;-73
2023/11/29 03:53:59;;;;;;;5.60;0.60;;;3.30;99.90;;;;;;6208714;23;20055;-73
2023/11/29 03:56:24;;;;;;;6.20;1.42;;;3.30;99.90;;;;;;6207834;23;20454;-74
2023/11/29 03:58:50;;;;;;;2.63;0.40;;;3.30;99.90;;;;;;6209031;23;20444;-73
2023/11/29 04:01:15;;;;;;;4.82;0.98;;;3.30;99.90;;;;;;6207569;23;20492;-72
2023/11/29 04:03:41;;;;;;;2.78;0.50;;;3.30;99.90;;;;;;6211083;23;20080;-72
2023/11/29 04:06:07;;;;;;;3.28;0.38;;;3.30;99.90;;;;;;6208477;23;20013;-72
2023/11/29 04:08:36;;;;;;;4.03;0.55;;;3.40;99.90;;;;;;6207869;23;20084;-73
2023/11/29 04:11:02;;;;;;;4.25;0.50;;;3.40;99.90;;;;;;6208835;23;20458;-74
2023/11/29 04:13:27;;;;;;;6.10;1.15;;;3.40;99.90;;;;;;6207849;23;20016;-75
2023/11/29 04:15:53;;;;;;;5.97;0.52;;;3.40;99.90;;;;;;6208492;23;20012;-73
2023/11/29 04:18:18;;;;;;;1.10;0.20;;;3.30;99.90;;;;;;6207395;23;20039;-73
2023/11/29 04:20:44;;;;;;;7.05;0.75;;;3.40;99.90;;;;;;6208610;23;20026;-73
2023/11/29 04:23:09;;;;;;;3.63;0.52;;;3.40;99.90;;;;;;6210016;23;20039;-74
2023/11/29 04:25:36;;;;;;;3.08;0.20;;;3.40;99.90;;;;;;6208397;23;20020;-74
2023/11/29 04:28:03;;;;;;;7.45;0.70;;;3.40;99.90;;;;;;6208911;23;20016;-74
2023/11/29 04:30:28;;;;;;;2.75;0.50;;;3.40;99.90;;;;;;6207488;23;22068;-75
2023/11/29 04:32:54;;;;;;;3.40;0.50;;;3.50;99.90;;;;;;6210128;23;20008;-74
2023/11/29 04:35:20;;;;;;;3.50;0.30;;;3.50;99.90;;;;;;6207393;23;20020;-74
2023/11/29 04:37:45;;;;;;;5.55;0.77;;;3.50;99.90;;;;;;6208934;23;20011;-74
2023/11/29 04:40:11;;;;;;;2.83;0.25;;;3.50;99.90;;;;;;6209303;23;20490;-75
2023/11/29 04:42:37;;;;;;;3.42;0.47;;;3.50;99.90;;;;;;6208490;23;20001;-76
2023/11/29 04:45:03;;;;;;;1.45;0.20;;;3.50;99.90;;;;;;6210271;23;20016;-74
2023/11/29 04:47:28;;;;;;;0.95;0.50;;;3.40;99.90;;;;;;6207094;23;20079;-74
2023/11/29 04:49:54;;;;;;;0.73;0.10;;;3.40;99.90;;;;;;6208576;23;20033;-75
2023/11/29 04:52:19;;;;;;;0.95;0.20;;;3.30;99.90;;;;;;6207378;23;20012;-75
2023/11/29 04:54:45;;;;;;;6.60;1.05;;;3.30;99.90;;;;;;6208638;23;20012;-75
2023/11/29 04:57:11;;;;;;;0.75;0.10;;;3.20;99.90;;;;;;6207394;23;20015;-76
2023/11/29 04:59:38;;;;;;;4.80;0.10;;;3.10;99.90;;;;;;6207957;23;20021;-75
2023/11/29 05:02:04;;;;;;;3.83;0.30;;;3.00;99.90;;;;;;6208275;23;20470;-74
2023/11/29 05:04:30;;;;;;;2.67;0.20;;;2.90;99.90;;;;;;6208787;23;20385;-76
2023/11/29 05:06:56;;;;;;;2.72;0.32;;;2.90;99.90;;;;;;6208028;23;20036;-77
2023/11/29 05:09:21;;;;;;;1.33;0.10;;;2.90;99.90;;;;;;6206545;23;20036;-73
2023/11/29 05:11:47;;;;;;;1.65;0.43;;;2.90;99.90;;;;;;6208333;23;20007;-74
2023/11/29 05:14:13;;;;;;;5.00;0.82;;;3.00;99.90;;;;;;6207767;23;20008;-74
2023/11/29 05:16:38;;;;;;;3.75;0.20;;;3.10;99.90;;;;;;6209847;23;20075;-74
2023/11/29 05:19:05;;;;;;;2.85;0.40;;;3.20;99.90;;;;;;6208151;23;20013;-75
2023/11/29 05:21:31;;;;;;;3.70;0.10;;;3.30;99.90;;;;;;6206529;23;20338;-73
2023/11/29 05:23:57;;;;;;;3.97;0.52;;;3.40;99.90;;;;;;6210296;23;20005;-75
2023/11/29 05:26:23;;;;;;;3.60;0.08;;;3.40;99.90;;;;;;6206479;23;20476;-74
2023/11/29 05:28:48;;;;;;;1.00;0.10;;;3.40;99.90;;;;;;6208489;23;20008;-73
2023/11/29 05:51:57;;;;;;;3.17;0.40;;;3.10;99.90;;;;;;6186491;22;20354;-75
2023/11/29 05:54:23;;;;;;;2.47;0.10;;;3.10;99.90;;;;;;6206493;22;20005;-76
2023/11/29 05:56:48;;;;;;;4.63;0.45;;;3.10;99.90;;;;;;6205761;22;20013;-77
2023/11/29 05:59:14;;;;;;;5.72;0.50;;;3.10;99.90;;;;;;6204876;22;20008;-76
2023/11/29 06:01:40;;;;;;;4.20;0.40;;;3.10;99.90;;;;;;6209236;23;20613;-75
2023/11/29 06:04:06;;;;;;;0.57;0.10;;;3.10;99.90;;;;;;6208539;23;20096;-77
2023/11/29 06:06:32;;;;;;;4.90;0.57;;;3.10;99.90;;;;;;6204462;23;20474;-76
2023/11/29 06:08:59;;;;;;;1.60;0.55;;;3.20;99.90;;;;;;6205299;23;20090;-76
2023/11/29 06:11:26;;;;;;;2.63;0.68;;;3.20;99.90;;;;;;6204373;23;20011;-77
2023/11/29 06:13:52;;;;;;;4.60;0.40;;;3.20;99.90;;;;;;6205589;23;20097;-76
2023/11/29 06:16:18;;;;;;;4.20;0.20;;;3.20;99.90;;;;;;6205439;23;20222;-76
2023/11/29 06:18:43;;;;;;;6.35;0.88;;;3.30;99.90;;;;;;6208908;23;20434;-73
2023/11/29 06:21:09;;;;;;;3.85;0.30;;;3.30;99.90;;;;;;6208867;23;20043;-75
2023/11/29 06:23:36;;;;;;;6.10;0.35;;;3.20;99.90;;;;;;6207017;23;20007;-76
2023/11/29 06:26:04;;;;;;;2.60;0.30;;;3.20;99.90;;;;;;6209439;23;20411;-76
2023/11/29 06:28:30;;;;;;;1.63;0.30;;;3.20;99.90;;;;;;6206616;23;20035;-75
2023/11/29 06:30:56;;;;;;;3.80;0.75;;;3.30;99.90;;;;;;6208533;23;20009;-76
2023/11/29 06:33:21;;;;;;;3.03;0.32;;;3.30;99.90;;;;;;6209181;23;20008;-75
2023/11/29 06:35:47;;;;;;;2.00;0.30;;;3.40;99.90;;;;;;6208556;23;20094;-75
2023/11/29 06:38:13;;;;;;;2.78;0.45;;;3.50;99.90;;;;;;6209155;23;20008;-77
2023/11/29 06:40:38;;;;;;;1.90;0.30;;;3.60;99.90;;;;;;6208187;23;20012;-76
2023/11/29 06:43:04;;;;;;;3.20;0.43;;;3.60;99.90;;;;;;6209258;23;20698;-75
2023/11/29 06:45:29;;;;;;;0.63;0.30;;;3.60;99.90;;;;;;6210036;23;21883;-75
2023/11/29 06:47:55;;;;;;;2.72;0.57;;;3.70;99.90;;;;;;6208651;23;20012;-77
2023/11/29 06:50:21;;;;;;;5.10;0.52;;;3.70;99.90;;;;;;6210590;23;20017;-75
2023/11/29 06:52:46;;;;;;;1.73;0.50;;;3.60;99.90;;;;;;6217110;23;20036;-74
2023/11/29 06:55:12;;;;;;;5.38;0.32;;;3.60;99.90;;;;;;6210413;23;20064;-76
2023/11/29 06:57:38;;;;;;;6.50;0.50;;;3.60;99.90;;;;;;6211175;23;20032;-75
2023/11/29 07:00:09;;;;;;;3.15;0.50;;;3.50;99.90;;;;;;6210405;23;20028;-77
2023/11/29 07:02:36;;;;;;;4.60;1.48;;;3.50;99.90;;;;;;6207452;23;20032;-76
2023/11/29 07:05:04;;;;;;;6.22;0.88;;;3.50;99.90;;;;;;6207725;23;20060;-75
2023/11/29 07:07:29;;;;;;;2.58;0.50;;;3.50;99.90;;;;;;6209109;23;20012;-77
2023/11/29 07:09:55;;;;;;;4.55;0.47;;;3.50;99.90;;;;;;6209161;23;20039;-76
2023/11/29 07:12:22;;;;;;;0.98;0.35;;;3.60;99.90;;;;;;6207689;23;20025;-77
2023/11/29 07:14:47;;;;;;;5.75;0.38;;;3.60;99.90;;;;;;6211046;23;20005;-76
2023/11/29 07:17:13;;;;;;;3.25;1.17;;;3.60;99.90;;;;;;6207648;23;20005;-77
2023/11/29 07:19:40;;;;;;;6.45;0.50;;;3.70;99.90;;;;;;6210677;23;20009;-76
2023/11/29 07:22:06;;;;;;;3.53;0.70;;;3.70;99.90;;;;;;6208761;23;20023;-75
2023/11/29 07:24:31;;;;;;;1.88;0.43;;;3.70;99.90;;;;;;6209381;23;20012;-76
2023/11/29 07:26:57;;;;;;;3.60;0.50;;;3.60;99.90;;;;;;6208975;23;20461;-76
2023/11/29 07:29:22;;;;;;;7.65;0.82;;;3.60;99.90;;;;;;6209421;23;20017;-76
2023/11/29 07:31:48;;;;;;;4.72;0.60;;;3.50;99.90;;;;;;6210332;23;20021;-76
2023/11/29 07:34:13;;;;;;;4.45;0.45;;;3.40;99.90;;;;;;6207913;23;20115;-76
2023/11/29 07:36:43;;;;;;;9.57;0.30;;;3.30;99.90;;;;;;6210977;23;20075;-77
2023/11/29 07:39:09;;;;;;;1.77;0.28;;;3.20;99.90;;;;;;6210160;23;20039;-76
2023/11/29 07:41:34;;;;;;;1.67;0.73;;;3.10;99.90;;;;;;6215130;23;20017;-74
2023/11/29 07:44:00;;;;;;;4.38;0.63;;;3.00;99.90;;;;;;6211619;23;20350;-76
2023/11/29 07:46:25;;;;;;;4.22;0.77;;;2.90;99.90;;;;;;6209728;23;20024;-76
2023/11/29 07:48:51;;;;;;;1.85;0.30;;;2.90;99.90;;;;;;6208416;23;20430;-75
2023/11/29 07:51:17;;;;;;;3.75;0.47;;;2.80;99.90;;;;;;6207479;23;20012;-77
2023/11/29 07:53:44;;;;;;;3.30;0.60;;;2.80;99.90;;;;;;6210765;23;20009;-76
2023/11/29 07:56:10;;;;;;;5.00;0.50;;;2.80;99.90;;;;;;6210027;23;20008;-77
2023/11/29 07:58:35;;;;;;;7.93;0.68;;;2.70;99.90;;;;;;6208473;23;20069;-76
2023/11/29 08:01:01;;;;;;;2.03;0.47;;;2.70;99.90;;;;;;6208555;23;20013;-76
2023/11/29 08:03:27;;;;;;;6.72;1.02;;;2.70;99.90;;;;;;6207319;23;20273;-76
2023/11/29 08:05:52;;;;;;;7.13;1.23;;;2.70;99.90;;;;;;6210238;23;20016;-75
2023/11/29 08:08:18;;;;;;;3.50;0.70;;;2.70;99.90;;;;;;6206711;23;20020;-76
2023/11/29 08:10:43;;;;;;;2.20;0.80;;;2.80;99.90;;;;;;6210100;23;20017;-76
2023/11/29 08:13:09;;;;;;;4.20;0.77;;;2.80;99.90;;;;;;6208382;23;20011;-75
2023/11/29 08:15:35;;;;;;;3.60;0.75;;;2.80;99.90;;;;;;6209355;23;20012;-75
2023/11/29 08:18:01;;;;;;;3.10;0.60;;;2.80;99.90;;;;;;6208143;23;20034;-76
2023/11/29 08:20:26;;;;;;;4.43;0.95;;;2.80;99.90;;;;;;6208774;23;20096;-77
2023/11/29 08:22:52;;;;;;;7.28;1.02;;;2.70;99.90;;;;;;6208069;23;20028;-76
2023/11/29 08:25:20;;;;;;;5.78;0.75;;;2.70;99.90;;;;;;6206798;23;20021;-77
2023/11/29 08:27:46;;;;;;;10.07;1.10;;;2.70;99.90;;;;;;6208231;23;20385;-75
2023/11/29 08:30:12;;;;;;;2.13;0.63;;;2.70;99.90;;;;;;6208768;23;20091;-75
2023/11/29 08:32:40;;;;;;;1.83;0.60;;;2.70;99.90;;;;;;6208282;23;20008;-76
2023/11/29 08:35:06;;;;;;;3.00;0.98;;;2.80;99.90;;;;;;6208032;23;20009;-76
2023/11/29 08:37:31;;;;;;;5.53;1.42;;;2.80;99.90;;;;;;6209370;23;20008;-75
2023/11/29 08:39:59;;;;;;;8.05;1.77;;;2.80;99.90;;;;;;6207854;23;20083;-76
2023/11/29 08:42:25;;;;;;;6.97;0.82;;;2.90;99.90;;;;;;6209170;23;20013;-76
2023/11/29 08:44:50;;;;;;;5.28;1.55;;;2.90;99.90;;;;;;6209915;23;20096;-75
2023/11/29 08:47:16;;;;;;;6.38;1.48;;;3.00;99.90;;;;;;6206704;23;20575;-75
2023/11/29 08:49:42;;;;;;;3.70;0.63;;;3.00;99.90;;;;;;6210748;23;20083;-77
2023/11/29 08:52:07;;;;;;;6.57;1.30;;;3.10;99.90;;;;;;6207963;23;20098;-77
2023/11/29 08:54:33;;;;;;;1.88;0.43;;;3.20;99.90;;;;;;6206311;23;20030;-77
2023/11/29 08:56:59;;;;;;;3.13;0.85;;;3.20;99.90;;;;;;6207756;23;20137;-76
2023/11/29 08:59:24;;;;;;;4.05;1.05;;;3.30;99.90;;;;;;6206431;23;20055;-76
2023/11/29 09:01:52;;;;;;;3.85;0.80;;;3.40;99.90;;;;;;6208081;23;20015;-76
2023/11/29 09:04:17;;;;;;;5.13;0.93;;;3.40;99.90;;;;;;6208575;23;20012;-76
2023/11/29 09:06:43;;;;;;;3.20;0.63;;;3.50;99.90;;;;;;6209697;23;20063;-77
2023/11/29 09:09:09;;;;;;;5.20;1.27;;;3.60;99.90;;;;;;6207888;23;20011;-75
2023/11/29 09:11:34;;;;;;;4.20;1.17;;;3.60;99.90;;;;;;6206783;23;20361;-75
2023/11/29 09:14:00;;;;;;;5.03;0.60;;;3.70;99.90;;;;;;6207836;23;20319;-76
2023/11/29 09:16:25;;;;;;;2.67;0.57;;;3.70;99.90;;;;;;6206581;23;20516;-76
2023/11/29 09:18:51;;;;;;;2.05;0.70;;;3.80;99.90;;;;;;6208056;23;20484;-75
2023/11/29 09:21:17;;;;;;;4.13;0.40;;;3.80;99.90;;;;;;6208135;23;20604;-76
2023/11/29 09:23:43;;;;;;;4.03;0.65;;;3.90;99.90;;;;;;6207826;23;20061;-75
2023/11/29 09:26:08;;;;;;;3.25;0.65;;;3.90;99.90;;;;;;6207827;23;20017;-74
2023/11/29 09:28:35;;;;;;;5.30;1.23;;;4.00;99.90;;;;;;6208263;23;20008;-75
2023/11/29 09:31:01;;;;;;;1.77;0.60;;;4.00;99.90;;;;;;6207587;23;20005;-76
2023/11/29 09:33:27;;;;;;;6.20;0.73;;;4.00;99.90;;;;;;6206735;23;20374;-77
2023/11/29 09:35:54;;;;;;;1.67;0.30;;;4.00;99.90;;;;;;6207702;23;20391;-76
2023/11/29 09:38:20;;;;;;;4.07;0.73;;;4.00;99.90;;;;;;6206110;23;20017;-75
2023/11/29 09:40:46;;;;;;;2.83;0.90;;;4.00;99.90;;;;;;6207814;23;20370;-77
2023/11/29 09:43:12;;;;;;;2.45;0.60;;;4.00;99.90;;;;;;6206176;23;20005;-76
2023/11/29 09:45:37;;;;;;;2.15;0.85;;;3.90;99.90;;;;;;6209369;23;20296;-77
2023/11/29 09:48:03;;;;;;;4.25;0.50;;;3.90;99.90;;;;;;6207650;23;20015;-75
2023/11/29 09:50:31;;;;;;;2.30;0.50;;;3.90;99.90;;;;;;6206406;23;20017;-76
2023/11/29 09:52:57;;;;;;;3.15;0.75;;;3.90;99.90;;;;;;6209317;23;20080;-76
2023/11/29 09:55:27;;;;;;;2.25;0.57;;;3.90;99.90;;;;;;6208582;23;20021;-75
2023/11/29 09:57:53;;;;;;;0.80;0.33;;;4.00;99.90;;;;;;6209890;23;20005;-76
2023/11/29 10:00:19;;;;;;;1.98;0.50;;;4.00;99.90;;;;;;6210350;23;20248;-75
2023/11/29 10:02:44;;;;;;;3.55;0.60;;;3.90;99.90;;;;;;6209601;23;20391;-77
2023/11/29 10:05:14;;;;;;;2.17;0.55;;;4.00;99.90;;;;;;6210826;23;20048;-76
2023/11/29 10:07:41;;;;;;;5.57;0.73;;;4.00;99.90;;;;;;6211039;23;20469;-75
2023/11/29 10:10:07;;;;;;;5.63;0.55;;;4.10;99.90;;;;;;6209434;23;20446;-75
2023/11/29 10:12:40;;;;;;;3.58;1.05;;;4.30;99.90;;;;;;6208442;23;20000;-76
2023/11/29 10:15:08;;;;;;;6.70;0.60;;;4.30;99.90;;;;;;6209477;23;20016;-75
2023/11/29 10:17:33;;;;;;;4.20;0.60;;;4.40;99.90;;;;;;6208186;23;20009;-77
2023/11/29 10:19:59;;;;;;;2.30;0.55;;;4.40;99.90;;;;;;6209305;23;20027;-76
2023/11/29 10:22:25;;;;;;;2.05;0.70;;;4.50;99.90;;;;;;6208077;23;20347;-77
2023/11/29 10:24:51;;;;;;;2.40;0.95;;;4.50;99.90;;;;;;6211193;23;20051;-75
2023/11/29 10:27:19;;;;;;;2.72;0.30;;;4.50;99.90;;;;;;6207864;23;20557;-76
2023/11/29 10:29:46;;;;;;;5.45;0.85;;;4.40;99.90;;;;;;6209143;23;20009;-76
2023/11/29 10:32:13;;;;;;;3.20;0.43;;;4.50;99.90;;;;;;6209630;23;20005;-77
2023/11/29 10:34:39;;;;;;;2.60;1.05;;;4.50;99.90;;;;;;6211546;23;20005;-76
2023/11/29 10:37:06;;;;;;;3.05;0.98;;;4.50;99.90;;;;;;6210871;23;20012;-75
2023/11/29 10:39:37;;;;;;;2.65;0.40;;;4.60;99.90;;;;;;6207503;23;20084;-77
2023/11/29 10:42:10;;;;;;;2.65;0.30;;;4.70;99.90;;;;;;6211041;23;20035;-76
2023/11/29 10:44:40;;;;;;;2.95;0.20;;;4.70;99.90;;;;;;6208750;23;20013;-75
2023/11/29 10:47:17;;;;;;;1.30;0.17;;;4.80;99.90;;;;;;6208892;23;20012;-76
2023/11/29 10:49:48;;;;;;;3.03;0.50;;;4.90;99.90;;;;;;6210202;23;20013;-76
2023/11/29 10:52:18;;;;;;;1.30;0.32;;;4.90;99.90;;;;;;6209745;23;20520;-75
2023/11/29 10:54:48;;;;;;;1.33;0.38;;;4.90;99.90;;;;;;6209288;23;20012;-75
2023/11/29 10:57:21;;;;;;;3.17;0.40;;;5.00;99.90;;;;;;6209532;23;20417;-76
2023/11/29 10:59:56;;;;;;;2.00;0.93;;;5.00;99.90;;;;;;6210794;23;20020;-76
2023/11/29 11:02:23;;;;;;;3.08;0.43;;;5.00;99.90;;;;;;6207699;23;20059;-76
2023/11/29 11:05:08;;;;;;;1.85;0.70;;;5.00;99.90;;;;;;6209153;23;20017;-76
2023/11/29 11:07:41;;;;;;;4.05;0.40;;;4.80;99.90;;;;;;6207763;23;20012;-77
2023/11/29 11:10:15;;;;;;;2.08;0.47;;;4.80;99.90;;;;;;6209347;23;20027;-75
2023/11/29 11:12:42;;;;;;;3.92;0.40;;;4.70;99.90;;;;;;6208467;23;20007;-76
2023/11/29 11:15:15;;;;;;;1.13;0.40;;;4.60;99.90;;;;;;6209008;23;20012;-76
2023/11/29 11:17:43;;;;;;;0.75;0.20;;;4.50;99.90;;;;;;6207371;23;20333;-76
2023/11/29 11:20:10;;;;;;;1.00;0.20;;;4.30;99.90;;;;;;6210657;23;20023;-75
2023/11/29 11:22:42;;;;;;;1.67;0.20;;;4.20;99.90;;;;;;6207747;23;20008;-77
2023/11/29 11:25:16;;;;;;;1.17;0.20;;;4.10;99.90;;;;;;6210831;23;20477;-76
2023/11/29 11:27:43;;;;;;;2.10;0.30;;;4.00;99.90;;;;;;6209936;23;20008;-77
2023/11/29 11:32:58;;;;;;;0.30;0.20;;;4.00;99.90;;;;;;6208279;22;20021;-73
2023/11/29 11:35:32;;;;;;;0.60;0.20;;;4.00;99.90;;;;;;6216503;22;20471;-75
2023/11/29 11:38:00;;;;;;;5.60;0.85;;;4.00;99.90;;;;;;6216562;22;20036;-74
2023/11/29 11:40:31;;;;;;;2.17;0.55;;;4.00;99.90;;;;;;6208398;23;20016;-76
2023/11/29 11:42:57;;;;;;;;;;;4.00;99.90;;;;;;6210702;23;20008;-75
2023/11/29 11:45:24;;;;;;;0.50;0.40;;;4.00;99.90;;;;;;6209282;23;19963;-75
2023/11/29 11:47:50;;;;;;;3.95;0.45;;;4.10;99.90;;;;;;6211294;23;20334;-75
2023/11/29 11:50:17;;;;;;;0.93;0.40;;;4.10;99.90;;;;;;6208582;23;20450;-74
2023/11/29 11:52:43;;;;;;;3.13;0.30;;;4.20;99.90;;;;;;6210221;23;20001;-77
2023/11/29 11:55:11;;;;;;;1.55;0.65;;;4.20;99.90;;;;;;6210224;23;20012;-76
2023/11/29 11:57:39;;;;;;;1.08;0.30;;;4.20;99.90;;;;;;6210181;23;20004;-75
2023/11/29 12:00:08;;;;;;;1.10;0.30;;;4.10;99.90;;;;;;6210632;23;20080;-77
2023/11/29 12:02:34;;;;;;;4.30;0.40;;;4.10;99.90;;;;;;6209475;23;20015;-77
2023/11/29 12:05:00;;;;;;;1.20;0.13;;;4.20;99.90;;;;;;6211537;23;20350;-76
2023/11/29 12:07:27;;;;;;;1.42;0.45;;;4.20;99.90;;;;;;6209985;23;20004;-77
2023/11/29 12:09:55;;;;;;;1.10;0.40;;;4.30;99.90;;;;;;6211624;23;20590;-76
2023/11/29 12:12:21;;;;;;;0.80;0.20;;;4.30;99.90;;;;;;6209843;23;20086;-76
2023/11/29 12:14:50;;;;;;;1.40;0.30;;;4.30;99.90;;;;;;6209662;23;20023;-75
2023/11/29 12:17:18;;;;;;;1.55;0.28;;;4.30;99.90;;;;;;6208480;23;20019;-74
2023/11/29 12:19:46;;;;;;;5.47;0.75;;;4.30;99.90;;;;;;6211650;23;20008;-74
2023/11/29 12:22:12;;;;;;;1.15;0.30;;;4.20;99.90;;;;;;6202313;23;20012;-75
2023/11/29 12:24:42;;;;;;;0.52;0.20;;;4.20;99.90;;;;;;6208319;23;20024;-74
2023/11/29 12:27:08;;;;;;;1.13;0.28;;;4.10;99.90;;;;;;6208740;23;20001;-77
2023/11/29 12:29:41;;;;;;;0.70;0.30;;;4.00;99.90;;;;;;6206758;23;20074;-78
2023/11/29 12:32:07;;;;;;;0.35;0.30;;;3.90;99.90;;;;;;6205860;23;20353;-74
2023/11/29 12:34:33;;;;;;;2.10;0.57;;;3.90;99.90;;;;;;6204847;23;20013;-75
2023/11/29 12:37:01;;;;;;;1.73;0.20;;;3.90;99.90;;;;;;6206039;23;20026;-74
2023/11/29 12:39:33;;;;;;;0.32;0.08;;;3.80;99.90;;;;;;6206399;23;20000;-76
2023/11/29 12:42:05;;;;;;;0.73;0.25;;;3.90;99.90;;;;;;6206222;23;20076;-76
2023/11/29 12:44:32;;;;;;;0.63;0.10;;;3.80;99.90;;;;;;6205208;23;20096;-74
2023/11/29 12:46:58;;;;;;;0.57;0.10;;;3.80;99.90;;;;;;6208828;23;20001;-74
2023/11/29 12:49:23;;;;;;;1.27;0.20;;;3.80;99.90;;;;;;6208548;23;20653;-72
2023/11/29 12:51:49;;;;;;;2.53;0.40;;;3.80;99.90;;;;;;6179872;23;20028;-75
2023/11/29 12:54:15;;;;;;;0.63;0.20;;;3.80;99.90;;;;;;6173846;23;20004;-75
2023/11/29 12:56:41;;;;;;;1.48;0.20;;;3.90;99.90;;;;;;6176474;23;20107;-75
2023/11/29 12:59:07;;;;;;;1.92;0.38;;;3.90;99.90;;;;;;6176306;23;20005;-76
2023/11/29 13:01:33;;;;;;;3.25;0.45;;;4.10;99.90;;;;;;6175549;23;20001;-75
2023/11/29 13:03:59;;;;;;;1.00;0.50;;;4.20;99.90;;;;;;6179345;23;20024;-75
2023/11/29 13:06:25;;;;;;;0.52;0.40;;;4.30;99.90;;;;;;6177627;23;20043;-73
2023/11/29 13:08:51;;;;;;;2.03;0.17;;;4.30;99.90;;;;;;6180545;23;20390;-76
2023/11/29 13:11:17;;;;;;;0.90;0.30;;;4.40;99.90;;;;;;6177538;23;20009;-75
2023/11/29 13:13:43;;;;;;;4.75;0.65;;;4.40;99.90;;;;;;6180909;23;20061;-74
2023/11/29 13:16:11;;;;;;;0.30;0.20;;;4.30;99.90;;;;;;6179423;23;20462;-75